Time;durP1;ratioP1;P1;durP2;ratioP2;P2;SDS_P1;SDS_P2;PMS_P1;PMS_P2;Temp;Humidity;BMP_temperature;BMP_pressure;BME280_temperature;BME280_humidity;BME280_pressure;Samples;Min_cycle;Max_cycle;Signal;HPM_P1;HPM_P2
2021/11/26 00:00:12;;;;;;;13.63;9.13;;;;;;;;;;360334;147;864888;-57
2021/11/26 00:01:14;;;;;;;9.95;5.33;;;;;;;;;;359240;147;857268;-57
2021/11/26 00:02:20;;;;;;;10.98;6.34;;;;;;;;;;354919;149;857179;-57
2021/11/26 00:03:21;;;;;;;12.40;7.27;;;;;;;;;;356000;149;857310;-57
2021/11/26 00:04:23;;;;;;;9.24;6.38;;;;;;;;;;357754;148;860623;-57
2021/11/26 00:05:25;;;;;;;13.79;7.16;;;;;;;;;;360114;148;865079;-57
2021/11/26 00:06:28;;;;;;;14.06;8.52;;;;;;;;;;356860;149;864957;-56
2021/11/26 00:07:30;;;;;;;16.82;10.07;;;;;;;;;;348106;153;867211;-57
2021/11/26 00:08:32;;;;;;;12.94;7.33;;;;;;;;;;348772;153;865018;-57
2021/11/26 00:09:34;;;;;;;15.16;8.40;;;;;;;;;;349152;153;859007;-57
2021/11/26 00:10:35;;;;;;;13.81;8.64;;;;;;;;;;348877;153;865569;-57
2021/11/26 00:11:37;;;;;;;9.96;6.50;;;;;;;;;;346052;153;865075;-57
2021/11/26 00:12:40;;;;;;;14.34;8.66;;;;;;;;;;346985;153;866238;-57
2021/11/26 00:13:47;;;;;;;15.49;8.43;;;;;;;;;;346639;154;864938;-57
2021/11/26 00:15:52;;;;;;;13.36;8.01;;;;;;;;;;350790;152;866693;-58
2021/11/26 00:16:57;;;;;;;10.21;6.18;;;;;;;;;;351667;152;865838;-57
2021/11/26 00:18:03;;;;;;;11.74;7.51;;;;;;;;;;349103;151;857542;-57
2021/11/26 00:19:04;;;;;;;14.56;8.46;;;;;;;;;;347228;153;857321;-57
2021/11/26 00:20:04;;;;;;;12.56;7.54;;;;;;;;;;349575;151;865905;-57
2021/11/26 00:21:06;;;;;;;15.60;8.61;;;;;;;;;;352264;152;865548;-58
2021/11/26 00:22:08;;;;;;;10.79;6.88;;;;;;;;;;344003;154;857209;-58
2021/11/26 00:23:09;;;;;;;12.98;6.69;;;;;;;;;;349773;151;858935;-57
2021/11/26 00:24:13;;;;;;;13.21;7.91;;;;;;;;;;346223;153;865133;-58
2021/11/26 00:25:14;;;;;;;14.29;8.28;;;;;;;;;;342849;153;866755;-57
2021/11/26 00:26:16;;;;;;;11.08;6.78;;;;;;;;;;349027;151;857379;-57
2021/11/26 00:27:18;;;;;;;11.02;7.16;;;;;;;;;;351795;151;859176;-57
2021/11/26 00:28:20;;;;;;;10.31;6.54;;;;;;;;;;348362;152;867113;-57
2021/11/26 00:29:21;;;;;;;12.14;8.26;;;;;;;;;;349814;151;867177;-57
2021/11/26 00:30:23;;;;;;;14.12;7.52;;;;;;;;;;348978;152;865752;-57
2021/11/26 00:31:25;;;;;;;12.12;7.89;;;;;;;;;;348053;152;865438;-57
2021/11/26 00:32:26;;;;;;;7.79;5.28;;;;;;;;;;347610;152;865820;-58
2021/11/26 00:33:28;;;;;;;11.81;7.77;;;;;;;;;;343284;155;857307;-58
2021/11/26 00:34:30;;;;;;;13.99;9.00;;;;;;;;;;350068;153;866954;-57
2021/11/26 00:35:31;;;;;;;14.84;7.56;;;;;;;;;;349038;152;865171;-57
2021/11/26 00:36:33;;;;;;;9.10;5.94;;;;;;;;;;346407;151;865068;-57
2021/11/26 00:37:34;;;;;;;12.73;7.02;;;;;;;;;;349561;153;866235;-59
2021/11/26 00:38:36;;;;;;;11.47;6.24;;;;;;;;;;349031;153;865011;-58
2021/11/26 00:39:37;;;;;;;8.61;5.92;;;;;;;;;;348114;151;857949;-57
2021/11/26 00:40:39;;;;;;;9.73;6.79;;;;;;;;;;343855;154;865063;-58
2021/11/26 00:41:41;;;;;;;15.27;8.10;;;;;;;;;;344842;155;865803;-58
2021/11/26 00:42:43;;;;;;;9.86;6.54;;;;;;;;;;348100;152;858332;-57
2021/11/26 00:43:44;;;;;;;9.54;7.04;;;;;;;;;;347428;152;865166;-57
2021/11/26 00:44:46;;;;;;;8.19;6.06;;;;;;;;;;348389;152;864942;-57
2021/11/26 00:45:48;;;;;;;12.14;7.91;;;;;;;;;;348726;153;865129;-57
2021/11/26 00:46:49;;;;;;;8.85;5.61;;;;;;;;;;344714;154;865171;-57
2021/11/26 00:47:53;;;;;;;10.92;6.33;;;;;;;;;;345588;153;865705;-57
2021/11/26 00:48:55;;;;;;;9.87;7.06;;;;;;;;;;341937;152;865648;-57
2021/11/26 00:49:56;;;;;;;10.86;6.62;;;;;;;;;;345792;154;858461;-57
2021/11/26 00:50:58;;;;;;;13.10;8.41;;;;;;;;;;346225;152;858117;-57
2021/11/26 00:51:59;;;;;;;11.44;7.21;;;;;;;;;;346398;153;864937;-57
2021/11/26 00:53:01;;;;;;;10.07;5.70;;;;;;;;;;345722;154;865796;-57
2021/11/26 00:54:02;;;;;;;11.23;6.52;;;;;;;;;;349090;152;857175;-57
2021/11/26 00:55:05;;;;;;;13.14;6.90;;;;;;;;;;350405;151;866735;-57
2021/11/26 00:56:07;;;;;;;12.13;6.62;;;;;;;;;;349405;150;865782;-56
2021/11/26 00:57:18;;;;;;;11.99;7.79;;;;;;;;;;351656;152;857667;-58
2021/11/26 00:58:20;;;;;;;11.23;7.34;;;;;;;;;;349193;150;865295;-57
2021/11/26 00:59:21;;;;;;;8.48;6.49;;;;;;;;;;351173;152;857248;-57
2021/11/26 01:00:24;;;;;;;7.77;5.51;;;;;;;;;;349244;150;864911;-57
2021/11/26 01:01:26;;;;;;;10.85;7.54;;;;;;;;;;351439;151;859028;-57
2021/11/26 01:02:27;;;;;;;10.80;6.11;;;;;;;;;;351778;151;865047;-57
2021/11/26 01:03:29;;;;;;;11.86;8.35;;;;;;;;;;351879;150;867051;-57
2021/11/26 01:04:30;;;;;;;14.01;7.04;;;;;;;;;;352782;150;865073;-57
2021/11/26 01:05:32;;;;;;;12.28;6.10;;;;;;;;;;355713;151;857768;-57
2021/11/26 01:06:34;;;;;;;10.19;6.71;;;;;;;;;;353621;150;866449;-56
2021/11/26 01:07:35;;;;;;;12.74;7.99;;;;;;;;;;354128;150;857740;-57
2021/11/26 01:08:39;;;;;;;11.18;6.61;;;;;;;;;;350528;150;857428;-57
2021/11/26 01:09:43;;;;;;;10.92;6.99;;;;;;;;;;353375;151;859142;-56
2021/11/26 01:21:07;;;;;;;10.82;5.94;;;;;;;2.66;72.99;99434.13;372441;142;883054;-57
2021/11/26 01:22:09;;;;;;;8.97;5.35;;;;;;;2.57;72.97;99445.05;364163;146;857138;-57
2021/11/26 01:23:11;;;;;;;7.07;4.52;;;;;;;2.57;73.02;99439.94;364195;147;859345;-56
2021/11/26 01:24:13;;;;;;;8.56;5.29;;;;;;;2.61;73.08;99411.04;364401;147;857348;-57
2021/11/26 01:25:14;;;;;;;9.48;5.11;;;;;;;;;;365793;147;857289;-57
2021/11/26 01:26:16;;;;;;;8.03;4.90;;;;;;;;;;361982;147;858996;-57
2021/11/26 01:27:18;;;;;;;8.20;5.87;;;;;;;;;;366218;147;858769;-57
2021/11/26 01:28:20;;;;;;;9.75;6.67;;;;;;;;;;361901;147;864069;-57
2021/11/26 01:29:21;;;;;;;6.32;4.49;;;;;;;;;;364833;146;866202;-57
2021/11/26 01:30:27;;;;;;;10.44;6.49;;;;;;;;;;363125;147;864784;-57
2021/11/26 01:31:27;;;;;;;10.69;6.61;;;;;;;;;;365806;147;859012;-57
2021/11/26 01:32:29;;;;;;;8.43;5.93;;;;;;;;;;363372;146;857610;-57
2021/11/26 01:33:31;;;;;;;7.22;5.16;;;;;;;;;;365788;147;857264;-57
2021/11/26 01:34:32;;;;;;;9.71;5.85;;;;;;;;;;365529;147;865200;-57
2021/11/26 01:35:35;;;;;;;9.29;5.40;;;;;;;;;;364063;146;865260;-57
2021/11/26 01:36:37;;;;;;;9.88;6.93;;;;;;;;;;362620;146;859101;-57
2021/11/26 01:37:38;;;;;;;9.73;5.83;;;;;;;;;;365621;147;859964;-57
2021/11/26 01:38:40;;;;;;;13.34;6.39;;;;;;;;;;362715;147;857161;-57
2021/11/26 01:39:41;;;;;;;10.76;6.31;;;;;;;;;;359116;149;866665;-57
2021/11/26 01:40:43;;;;;;;11.30;6.41;;;;;;;;;;358242;150;864947;-57
2021/11/26 01:41:45;;;;;;;10.15;6.33;;;;;;;;;;358845;150;866140;-58
2021/11/26 01:42:48;;;;;;;8.99;6.68;;;;;;;;;;357216;150;860317;-58
2021/11/26 01:43:49;;;;;;;8.81;6.42;;;;;;;;;;358444;150;858430;-58
2021/11/26 01:44:51;;;;;;;12.75;8.36;;;;;;;;;;359252;149;859853;-58
2021/11/26 01:45:53;;;;;;;14.39;7.71;;;;;;;;;;357322;150;864934;-58
2021/11/26 01:46:55;;;;;;;8.78;5.65;;;;;;;;;;358684;149;866052;-57
2021/11/26 01:47:57;;;;;;;9.61;6.42;;;;;;;;;;357585;149;865462;-57
2021/11/26 01:48:58;;;;;;;11.42;7.94;;;;;;;;;;356170;149;865207;-58
2021/11/26 01:50:00;;;;;;;11.15;7.31;;;;;;;;;;356498;149;864965;-58
2021/11/26 01:51:02;;;;;;;10.17;6.19;;;;;;;;;;358196;150;867165;-58
2021/11/26 01:52:04;;;;;;;9.44;6.11;;;;;;;;;;355898;150;857199;-58
2021/11/26 01:53:05;;;;;;;14.41;7.51;;;;;;;;;;358552;149;866007;-58
2021/11/26 01:54:07;;;;;;;7.86;5.91;;;;;;;;;;356751;149;857194;-58
2021/11/26 01:55:09;;;;;;;11.71;7.74;;;;;;;;;;358197;150;866638;-58
2021/11/26 01:56:11;;;;;;;9.74;6.57;;;;;;;;;;358704;149;865655;-58
2021/11/26 01:57:12;;;;;;;9.44;5.35;;;;;;;;;;355929;149;857265;-58
2021/11/26 01:58:14;;;;;;;7.96;5.51;;;;;;;;;;357920;149;865260;-58
2021/11/26 01:59:15;;;;;;;9.31;5.56;;;;;;;;;;354044;150;864939;-58
2021/11/26 02:00:20;;;;;;;14.59;8.94;;;;;;;;;;357573;149;865360;-56
2021/11/26 02:01:22;;;;;;;9.57;5.97;;;;;;;;;;357953;150;856973;-56
2021/11/26 02:02:24;;;;;;;10.61;6.42;;;;;;;;;;357043;150;864911;-56
2021/11/26 02:03:25;;;;;;;7.71;5.25;;;;;;;;;;357952;149;865450;-56
2021/11/26 02:04:27;;;;;;;14.82;7.44;;;;;;;;;;358050;149;866494;-56
2021/11/26 02:05:29;;;;;;;10.31;6.61;;;;;;;;;;357462;150;866127;-56
2021/11/26 02:06:30;;;;;;;10.19;6.18;;;;;;;;;;357227;150;857433;-57
2021/11/26 02:07:32;;;;;;;12.13;6.54;;;;;;;;;;356495;149;857218;-57
2021/11/26 02:08:34;;;;;;;11.69;7.59;;;;;;;;;;357517;150;865220;-57
2021/11/26 02:09:35;;;;;;;10.45;7.30;;;;;;;;;;358340;150;865163;-58
2021/11/26 02:10:37;;;;;;;11.59;7.46;;;;;;;;;;358521;150;867165;-58
2021/11/26 02:11:39;;;;;;;8.91;6.36;;;;;;;;;;356301;150;865602;-57
2021/11/26 02:12:41;;;;;;;11.29;7.47;;;;;;;;;;357293;150;857166;-57
2021/11/26 02:13:42;;;;;;;10.71;6.86;;;;;;;;;;358257;149;858732;-57
2021/11/26 02:14:44;;;;;;;9.51;6.09;;;;;;;;;;357937;149;857171;-58
2021/11/26 02:15:46;;;;;;;12.58;8.08;;;;;;;;;;358394;149;857813;-57
2021/11/26 02:16:48;;;;;;;16.19;8.66;;;;;;;;;;357904;149;864969;-57
2021/11/26 02:17:51;;;;;;;14.43;6.97;;;;;;;;;;357520;149;857347;-57
2021/11/26 02:18:52;;;;;;;14.43;7.94;;;;;;;;;;359359;150;857425;-57
2021/11/26 02:19:54;;;;;;;12.59;6.29;;;;;;;;;;356897;150;858957;-58
2021/11/26 02:20:56;;;;;;;14.27;7.18;;;;;;;;;;358804;150;864887;-57
2021/11/26 02:21:58;;;;;;;13.37;7.33;;;;;;;;;;355892;149;858764;-57
2021/11/26 02:23:00;;;;;;;11.89;6.76;;;;;;;;;;358312;150;858702;-57
2021/11/26 02:24:02;;;;;;;10.24;6.66;;;;;;;;;;357333;148;865405;-58
2021/11/26 02:25:06;;;;;;;11.42;6.44;;;;;;;;;;356819;149;858204;-57
2021/11/26 02:26:08;;;;;;;13.21;7.84;;;;;;;;;;356233;150;859404;-58
2021/11/26 02:27:09;;;;;;;11.23;6.89;;;;;;;;;;358065;150;858933;-57
2021/11/26 02:28:11;;;;;;;10.76;6.76;;;;;;;;;;358880;149;864989;-57
2021/11/26 02:29:13;;;;;;;11.80;8.74;;;;;;;;;;358197;150;866176;-57
2021/11/26 02:30:16;;;;;;;9.11;6.03;;;;;;;;;;358927;150;857257;-57
2021/11/26 02:31:18;;;;;;;17.77;9.89;;;;;;;;;;357153;150;864938;-57
2021/11/26 02:32:20;;;;;;;11.75;7.88;;;;;;;;;;358492;149;857385;-57
2021/11/26 02:33:21;;;;;;;9.45;5.14;;;;;;;;;;356655;150;864939;-57
2021/11/26 02:34:23;;;;;;;7.39;4.73;;;;;;;;;;354438;149;865073;-56
2021/11/26 02:35:25;;;;;;;13.49;10.21;;;;;;;;;;358934;149;857177;-57
2021/11/26 02:36:27;;;;;;;13.27;7.52;;;;;;;;;;358356;150;867307;-57
2021/11/26 02:37:29;;;;;;;9.84;6.40;;;;;;;;;;356695;150;865791;-57
2021/11/26 02:38:31;;;;;;;12.89;7.54;;;;;;;;;;356450;149;866809;-56
2021/11/26 02:39:32;;;;;;;8.91;6.14;;;;;;;;;;359031;150;865876;-57
2021/11/26 02:40:34;;;;;;;9.06;5.80;;;;;;;;;;358989;150;865602;-57
2021/11/26 02:41:40;;;;;;;12.46;6.67;;;;;;;;;;357669;150;865619;-57
2021/11/26 02:42:41;;;;;;;14.36;7.73;;;;;;;;;;357909;149;857914;-57
2021/11/26 02:43:44;;;;;;;11.25;6.71;;;;;;;;;;355411;149;857210;-57
2021/11/26 02:44:48;;;;;;;8.99;6.38;;;;;;;;;;355221;150;864931;-57
2021/11/26 02:45:50;;;;;;;8.13;5.19;;;;;;;;;;357404;149;857846;-57
2021/11/26 02:46:51;;;;;;;13.23;8.18;;;;;;;;;;357889;150;867170;-58
2021/11/26 02:47:53;;;;;;;9.09;6.41;;;;;;;;;;357412;149;857247;-57
2021/11/26 02:48:57;;;;;;;14.19;8.78;;;;;;;;;;357025;150;865505;-57
2021/11/26 02:49:59;;;;;;;8.42;6.21;;;;;;;;;;357557;149;858496;-57
2021/11/26 02:51:00;;;;;;;10.57;6.77;;;;;;;;;;354981;150;857405;-57
2021/11/26 02:52:02;;;;;;;12.79;6.99;;;;;;;;;;354557;149;857681;-57
2021/11/26 02:53:04;;;;;;;10.84;6.33;;;;;;;;;;358205;150;867391;-57
2021/11/26 02:54:05;;;;;;;14.96;9.05;;;;;;;;;;357099;150;857623;-57
2021/11/26 02:55:08;;;;;;;12.06;8.34;;;;;;;;;;357272;150;865863;-57
2021/11/26 02:56:10;;;;;;;9.63;6.42;;;;;;;;;;357415;149;857144;-57
2021/11/26 02:57:11;;;;;;;13.62;6.87;;;;;;;;;;359041;150;865360;-57
2021/11/26 02:58:13;;;;;;;11.24;6.54;;;;;;;;;;355343;150;865976;-57
2021/11/26 02:59:15;;;;;;;6.83;4.60;;;;;;;;;;356347;149;864967;-57
2021/11/26 03:00:18;;;;;;;10.57;6.65;;;;;;;;;;356922;149;857776;-57
2021/11/26 03:01:19;;;;;;;12.24;7.99;;;;;;;;;;356625;150;857175;-57
2021/11/26 03:02:21;;;;;;;8.90;5.20;;;;;;;;;;358111;149;856654;-57
2021/11/26 03:03:23;;;;;;;10.93;6.21;;;;;;;;;;356844;149;866538;-56
2021/11/26 03:04:24;;;;;;;12.26;7.46;;;;;;;;;;354558;150;865845;-58
2021/11/26 03:05:26;;;;;;;11.37;7.29;;;;;;;;;;354607;149;865845;-57
2021/11/26 03:06:27;;;;;;;12.41;8.21;;;;;;;;;;355867;149;864955;-57
2021/11/26 03:07:29;;;;;;;10.14;6.04;;;;;;;;;;359035;149;866672;-56
2021/11/26 03:08:31;;;;;;;10.62;6.74;;;;;;;;;;358923;150;865829;-57
2021/11/26 03:09:33;;;;;;;14.39;8.25;;;;;;;;;;358324;149;865041;-57
2021/11/26 03:10:35;;;;;;;11.29;6.40;;;;;;;;;;358106;149;857637;-57
2021/11/26 03:11:36;;;;;;;15.38;8.73;;;;;;;;;;358498;150;866777;-57
2021/11/26 03:12:38;;;;;;;10.34;7.16;;;;;;;;;;358621;150;857600;-57
2021/11/26 03:13:40;;;;;;;13.34;6.86;;;;;;;;;;351803;152;864876;-58
2021/11/26 03:14:41;;;;;;;10.79;6.81;;;;;;;;;;357237;150;865494;-57
2021/11/26 03:15:44;;;;;;;8.98;6.43;;;;;;;;;;357567;150;865066;-56
2021/11/26 03:16:46;;;;;;;11.75;7.15;;;;;;;;;;357531;150;865099;-57
2021/11/26 03:17:48;;;;;;;14.57;9.02;;;;;;;;;;357716;149;859332;-57
2021/11/26 03:18:49;;;;;;;10.12;6.25;;;;;;;;;;356315;150;866539;-56
2021/11/26 03:19:51;;;;;;;9.16;5.91;;;;;;;;;;355805;150;858930;-56
2021/11/26 03:20:53;;;;;;;14.13;7.59;;;;;;;;;;355973;149;864899;-55
2021/11/26 03:21:55;;;;;;;11.71;7.06;;;;;;;;;;355362;150;858785;-56
2021/11/26 03:22:57;;;;;;;11.21;6.86;;;;;;;;;;353403;149;865279;-56
2021/11/26 03:23:58;;;;;;;10.55;6.86;;;;;;;;;;356940;148;865616;-56
2021/11/26 03:25:01;;;;;;;10.11;6.35;;;;;;;;;;356704;150;867238;-57
2021/11/26 03:26:03;;;;;;;8.55;5.62;;;;;;;;;;358248;148;865924;-58
2021/11/26 03:27:05;;;;;;;10.16;6.97;;;;;;;;;;356587;150;859080;-57
2021/11/26 03:28:08;;;;;;;12.74;7.43;;;;;;;;;;358539;149;866797;-55
2021/11/26 03:29:10;;;;;;;11.30;7.34;;;;;;;;;;354780;150;865840;-56
2021/11/26 03:30:15;;;;;;;11.76;7.85;;;;;;;;;;357349;149;857470;-56
2021/11/26 03:31:16;;;;;;;11.43;6.57;;;;;;;;;;356909;149;859202;-59
2021/11/26 03:32:18;;;;;;;12.22;7.54;;;;;;;;;;358013;150;857295;-58
2021/11/26 03:33:20;;;;;;;11.95;7.28;;;;;;;;;;358966;149;864772;-56
2021/11/26 03:34:21;;;;;;;13.69;7.33;;;;;;;;;;356741;149;867324;-56
2021/11/26 03:35:23;;;;;;;9.46;6.29;;;;;;;;;;357243;149;865565;-56
2021/11/26 03:36:25;;;;;;;9.32;7.13;;;;;;;;;;356307;150;865886;-55
2021/11/26 03:37:28;;;;;;;11.06;6.53;;;;;;;;;;355082;150;858162;-56
2021/11/26 03:38:35;;;;;;;12.18;7.59;;;;;;;;;;357885;149;857109;-57
2021/11/26 03:39:37;;;;;;;9.16;6.65;;;;;;;;;;358588;150;858809;-57
2021/11/26 03:40:38;;;;;;;12.49;8.44;;;;;;;;;;359120;150;857314;-56
2021/11/26 03:41:40;;;;;;;13.89;7.86;;;;;;;;;;357534;149;866761;-56
2021/11/26 03:42:42;;;;;;;11.07;6.51;;;;;;;;;;355625;149;865760;-56
2021/11/26 03:43:43;;;;;;;11.30;7.84;;;;;;;;;;359663;149;865052;-56
2021/11/26 03:44:45;;;;;;;14.32;8.67;;;;;;;;;;357693;149;865148;-56
2021/11/26 03:45:49;;;;;;;11.43;7.24;;;;;;;;;;356566;150;864993;-56
2021/11/26 03:46:50;;;;;;;10.61;6.41;;;;;;;;;;355945;150;866899;-57
2021/11/26 03:47:52;;;;;;;11.23;8.11;;;;;;;;;;355496;149;857329;-58
2021/11/26 03:48:54;;;;;;;12.39;8.85;;;;;;;;;;357373;149;866418;-58
2021/11/26 03:49:55;;;;;;;10.79;7.21;;;;;;;;;;356817;150;864940;-59
2021/11/26 03:50:57;;;;;;;11.46;7.29;;;;;;;;;;358705;150;867442;-56
2021/11/26 03:51:59;;;;;;;15.60;9.01;;;;;;;;;;357201;150;864940;-57
2021/11/26 03:53:00;;;;;;;14.04;7.17;;;;;;;;;;356121;149;866205;-56
2021/11/26 03:54:02;;;;;;;9.98;6.61;;;;;;;;;;358613;150;865011;-56
2021/11/26 03:55:04;;;;;;;14.19;7.50;;;;;;;;;;357849;150;866700;-56
2021/11/26 03:56:08;;;;;;;14.78;8.33;;;;;;;;;;357810;149;859257;-56
2021/11/26 03:57:09;;;;;;;10.45;7.01;;;;;;;;;;354705;150;857209;-56
2021/11/26 03:58:11;;;;;;;15.61;9.08;;;;;;;;;;357951;150;859001;-56
2021/11/26 03:59:12;;;;;;;9.76;6.72;;;;;;;;;;357080;149;857571;-56
2021/11/26 04:00:14;;;;;;;12.54;7.57;;;;;;;;;;359120;149;866674;-55
2021/11/26 04:01:16;;;;;;;10.63;6.95;;;;;;;;;;354976;150;857611;-55
2021/11/26 04:02:18;;;;;;;11.40;6.95;;;;;;;;;;357401;149;857970;-56
2021/11/26 04:03:19;;;;;;;11.84;7.60;;;;;;;;;;356986;149;857307;-55
2021/11/26 04:04:21;;;;;;;14.01;6.82;;;;;;;;;;354241;150;865891;-59
2021/11/26 04:05:22;;;;;;;12.16;7.40;;;;;;;;;;354785;150;865389;-58
2021/11/26 04:06:24;;;;;;;14.22;8.44;;;;;;;;;;351213;152;865063;-58
2021/11/26 04:07:26;;;;;;;15.89;8.07;;;;;;;;;;358462;149;857170;-57
2021/11/26 04:08:28;;;;;;;10.85;7.27;;;;;;;;;;357315;149;865320;-56
2021/11/26 04:09:29;;;;;;;13.64;7.63;;;;;;;;;;357674;149;865667;-57
2021/11/26 04:10:31;;;;;;;12.69;7.49;;;;;;;;;;356904;150;866057;-56
2021/11/26 04:11:33;;;;;;;13.95;7.93;;;;;;;;;;358128;150;857727;-58
2021/11/26 04:12:35;;;;;;;11.84;7.19;;;;;;;;;;356242;149;865377;-54
2021/11/26 04:13:36;;;;;;;11.05;7.26;;;;;;;;;;356470;150;866775;-56
2021/11/26 04:14:39;;;;;;;10.03;7.11;;;;;;;;;;359284;150;859610;-56
2021/11/26 04:15:52;;;;;;;15.71;9.80;;;;;;;;;;357839;149;866644;-57
2021/11/26 04:16:54;;;;;;;12.39;7.04;;;;;;;;;;354985;150;859978;-57
2021/11/26 04:17:57;;;;;;;9.61;6.46;;;;;;;;;;356243;149;859304;-56
2021/11/26 04:18:58;;;;;;;13.84;7.64;;;;;;;;;;351268;153;866657;-57
2021/11/26 04:20:00;;;;;;;15.21;7.77;;;;;;;;;;357720;149;857904;-56
2021/11/26 04:21:02;;;;;;;11.35;7.33;;;;;;;;;;355444;149;865362;-57
2021/11/26 04:22:04;;;;;;;12.86;7.77;;;;;;;;;;358127;149;866432;-56
2021/11/26 04:23:05;;;;;;;11.89;6.92;;;;;;;;;;356072;149;857787;-55
2021/11/26 04:24:07;;;;;;;10.05;6.04;;;;;;;;;;358237;149;858939;-57
2021/11/26 04:25:09;;;;;;;10.98;7.57;;;;;;;;;;354640;150;866445;-55
2021/11/26 04:26:12;;;;;;;9.34;5.92;;;;;;;;;;357469;150;865235;-56
2021/11/26 04:27:13;;;;;;;13.14;7.94;;;;;;;;;;357700;149;857314;-57
2021/11/26 04:28:15;;;;;;;14.24;8.93;;;;;;;;;;357462;149;866389;-56
2021/11/26 04:29:17;;;;;;;11.11;7.21;;;;;;;;;;356525;150;865030;-56
2021/11/26 04:30:20;;;;;;;10.87;6.33;;;;;;;;;;356337;150;864983;-56
2021/11/26 04:31:22;;;;;;;14.19;8.93;;;;;;;;;;357418;149;857456;-56
2021/11/26 04:32:26;;;;;;;12.48;6.99;;;;;;;;;;357566;149;857287;-57
2021/11/26 04:33:27;;;;;;;10.95;6.63;;;;;;;;;;357399;149;868493;-58
2021/11/26 04:34:29;;;;;;;12.06;7.21;;;;;;;;;;357647;149;859345;-56
2021/11/26 04:35:31;;;;;;;14.05;7.07;;;;;;;;;;358546;150;865046;-55
2021/11/26 04:36:32;;;;;;;10.99;7.34;;;;;;;;;;358691;149;858886;-56
2021/11/26 04:37:34;;;;;;;11.20;8.09;;;;;;;;;;357137;149;865114;-56
2021/11/26 04:38:36;;;;;;;17.68;7.52;;;;;;;;;;357858;149;865134;-57
2021/11/26 04:39:37;;;;;;;13.17;7.47;;;;;;;;;;358239;150;859518;-55
2021/11/26 04:40:41;;;;;;;10.65;6.62;;;;;;;;;;357457;149;865123;-57
2021/11/26 04:41:43;;;;;;;7.51;5.55;;;;;;;;;;358213;150;856580;-57
2021/11/26 04:42:45;;;;;;;11.27;6.87;;;;;;;;;;358488;150;865734;-57
2021/11/26 04:43:46;;;;;;;8.65;5.49;;;;;;;;;;354531;149;857775;-58
2021/11/26 04:44:48;;;;;;;12.14;7.66;;;;;;;;;;356484;149;858951;-57
2021/11/26 04:45:51;;;;;;;12.21;6.85;;;;;;;;;;357387;150;865103;-57
2021/11/26 04:46:53;;;;;;;11.67;7.70;;;;;;;;;;358094;150;865831;-57
2021/11/26 04:47:55;;;;;;;16.06;9.31;;;;;;;;;;357096;149;865837;-56
2021/11/26 04:48:56;;;;;;;9.01;6.79;;;;;;;;;;355903;149;864885;-58
2021/11/26 04:49:58;;;;;;;9.49;6.33;;;;;;;;;;355931;149;866881;-60
2021/11/26 04:51:00;;;;;;;11.97;6.45;;;;;;;;;;356049;150;865083;-60
2021/11/26 04:52:02;;;;;;;16.99;9.96;;;;;;;;;;357112;149;857215;-60
2021/11/26 04:53:03;;;;;;;11.81;7.31;;;;;;;;;;358315;149;865825;-59
2021/11/26 04:54:05;;;;;;;9.12;6.14;;;;;;;;;;356847;150;857204;-58
2021/11/26 04:55:07;;;;;;;11.15;7.09;;;;;;;;;;357976;149;865891;-58
2021/11/26 04:56:09;;;;;;;12.02;7.41;;;;;;;;;;358379;150;864979;-58
2021/11/26 04:57:11;;;;;;;10.81;6.98;;;;;;;;;;356191;150;857631;-59
2021/11/26 04:58:13;;;;;;;12.44;7.59;;;;;;;;;;357430;150;859393;-55
2021/11/26 04:59:14;;;;;;;11.67;5.99;;;;;;;;;;357900;149;864936;-57
2021/11/26 05:00:17;;;;;;;10.25;7.05;;;;;;;;;;356162;149;867408;-56
2021/11/26 05:01:19;;;;;;;11.18;7.49;;;;;;;;;;355519;149;858966;-58
2021/11/26 05:02:21;;;;;;;16.26;9.31;;;;;;;;;;357888;149;856106;-57
2021/11/26 05:03:23;;;;;;;12.36;7.44;;;;;;;;;;356677;149;864932;-56
2021/11/26 05:04:24;;;;;;;12.30;7.74;;;;;;;;;;355425;151;857111;-56
2021/11/26 05:05:26;;;;;;;15.75;9.21;;;;;;;;;;356732;149;865414;-57
2021/11/26 05:06:28;;;;;;;14.63;8.05;;;;;;;;;;358761;149;864854;-56
2021/11/26 05:07:29;;;;;;;12.79;7.40;;;;;;;;;;358371;149;860037;-58
2021/11/26 05:08:31;;;;;;;13.64;8.13;;;;;;;;;;357439;149;865103;-55
2021/11/26 05:09:33;;;;;;;10.38;6.75;;;;;;;;;;356946;149;866567;-55
2021/11/26 05:10:35;;;;;;;13.22;6.81;;;;;;;;;;356422;150;859254;-56
2021/11/26 05:11:37;;;;;;;15.27;7.91;;;;;;;;;;354649;150;865151;-55
2021/11/26 05:12:52;;;;;;;10.29;6.72;;;;;;;;;;356291;149;866739;-54
2021/11/26 05:13:48;;;;;;;11.86;7.16;;;;;;;;;;350573;152;866214;-57
2021/11/26 05:14:50;;;;;;;14.03;8.65;;;;;;;;;;352335;150;859425;-55
2021/11/26 05:15:52;;;;;;;11.77;7.12;;;;;;;;;;349210;152;866772;-55
2021/11/26 05:16:53;;;;;;;11.14;6.89;;;;;;;;;;355880;149;867266;-55
2021/11/26 05:17:59;;;;;;;13.48;7.01;;;;;;;;;;355511;149;864868;-55
2021/11/26 05:19:00;;;;;;;11.87;6.60;;;;;;;;;;357450;150;866686;-54
2021/11/26 05:20:02;;;;;;;15.21;8.35;;;;;;;;;;356404;150;857345;-55
2021/11/26 05:21:04;;;;;;;12.61;7.55;;;;;;;;;;358158;150;857192;-57
2021/11/26 05:22:06;;;;;;;12.73;8.70;;;;;;;;;;358189;150;857744;-58
2021/11/26 05:23:07;;;;;;;10.07;6.04;;;;;;;;;;356358;149;865964;-57
2021/11/26 05:24:09;;;;;;;11.04;6.53;;;;;;;;;;356173;150;864999;-58
2021/11/26 05:25:11;;;;;;;14.65;9.97;;;;;;;;;;358642;150;858165;-58
2021/11/26 05:26:13;;;;;;;12.47;6.47;;;;;;;;;;357927;149;857741;-58
2021/11/26 05:27:14;;;;;;;11.73;7.41;;;;;;;;;;357252;149;857356;-56
2021/11/26 05:28:16;;;;;;;12.70;7.99;;;;;;;;;;357567;150;866455;-57
2021/11/26 05:29:17;;;;;;;12.60;6.49;;;;;;;;;;358068;150;864919;-57
2021/11/26 05:30:19;;;;;;;10.18;6.45;;;;;;;;;;356145;149;857130;-56
2021/11/26 05:31:21;;;;;;;11.81;7.35;;;;;;;;;;358158;149;860298;-56
2021/11/26 05:32:23;;;;;;;13.25;8.06;;;;;;;;;;357675;150;864929;-58
2021/11/26 05:33:24;;;;;;;9.71;5.54;;;;;;;;;;355790;150;868085;-56
2021/11/26 05:34:26;;;;;;;13.21;6.81;;;;;;;;;;356395;149;864873;-56
2021/11/26 05:35:28;;;;;;;14.76;8.84;;;;;;;;;;355962;150;857041;-59
2021/11/26 05:36:29;;;;;;;11.68;7.37;;;;;;;;;;358529;149;865235;-56
2021/11/26 05:37:31;;;;;;;13.38;8.47;;;;;;;;;;357187;149;857735;-58
2021/11/26 05:38:33;;;;;;;12.40;7.91;;;;;;;;;;357697;150;865032;-55
2021/11/26 05:39:34;;;;;;;15.71;7.94;;;;;;;;;;358103;150;865428;-56
2021/11/26 05:40:36;;;;;;;15.89;8.43;;;;;;;;;;358400;148;864990;-58
2021/11/26 05:41:37;;;;;;;12.96;8.44;;;;;;;;;;357021;149;866772;-56
2021/11/26 05:42:39;;;;;;;11.24;6.41;;;;;;;;;;358032;150;866810;-57
2021/11/26 05:43:41;;;;;;;10.16;6.60;;;;;;;;;;357066;150;864857;-58
2021/11/26 05:44:42;;;;;;;15.41;8.61;;;;;;;;;;350302;152;867231;-57
2021/11/26 05:45:44;;;;;;;12.39;7.15;;;;;;;;;;354843;149;864958;-57
2021/11/26 05:46:46;;;;;;;14.42;7.70;;;;;;;;;;357100;150;858057;-57
2021/11/26 05:47:48;;;;;;;16.31;8.31;;;;;;;;;;357716;149;859124;-57
2021/11/26 05:48:49;;;;;;;14.92;8.86;;;;;;;;;;358252;149;865937;-57
2021/11/26 05:49:51;;;;;;;9.88;6.59;;;;;;;;;;358334;150;865434;-58
2021/11/26 05:50:53;;;;;;;9.05;6.19;;;;;;;;;;356629;148;865115;-58
2021/11/26 05:51:54;;;;;;;11.98;6.64;;;;;;;;;;357081;149;865932;-59
2021/11/26 05:52:56;;;;;;;9.70;6.66;;;;;;;;;;358393;150;857989;-57
2021/11/26 05:53:57;;;;;;;9.41;6.55;;;;;;;;;;358818;149;857011;-58
2021/11/26 05:54:59;;;;;;;11.56;7.95;;;;;;;;;;355907;150;857610;-56
2021/11/26 05:56:01;;;;;;;13.64;7.14;;;;;;;;;;356353;149;864995;-57
2021/11/26 05:57:03;;;;;;;9.79;6.67;;;;;;;;;;354873;149;866889;-58
2021/11/26 05:58:04;;;;;;;13.19;7.73;;;;;;;;;;355447;150;866293;-60
2021/11/26 05:59:06;;;;;;;15.60;8.26;;;;;;;;;;358286;149;859396;-60
2021/11/26 06:00:09;;;;;;;8.15;5.63;;;;;;;;;;356641;150;857277;-60
2021/11/26 06:01:11;;;;;;;13.00;8.76;;;;;;;;;;357997;150;857052;-60
2021/11/26 06:02:12;;;;;;;11.56;6.10;;;;;;;;;;357660;149;857753;-59
2021/11/26 06:03:14;;;;;;;12.68;7.17;;;;;;;;;;357306;149;865340;-58
2021/11/26 06:04:15;;;;;;;10.32;6.21;;;;;;;;;;358672;150;866711;-58
2021/11/26 06:05:17;;;;;;;12.23;6.71;;;;;;;;;;358315;149;865510;-58
2021/11/26 06:06:19;;;;;;;12.57;7.87;;;;;;;;;;357226;149;864905;-57
2021/11/26 06:07:21;;;;;;;9.97;7.39;;;;;;;;;;354706;150;858135;-57
2021/11/26 06:08:24;;;;;;;10.46;7.08;;;;;;;;;;358638;150;864885;-58
2021/11/26 06:09:28;;;;;;;13.94;7.47;;;;;;;;;;355699;150;866792;-56
2021/11/26 06:10:30;;;;;;;14.84;6.86;;;;;;;;;;357221;149;865248;-57
2021/11/26 06:11:32;;;;;;;13.54;8.39;;;;;;;;;;355811;150;857618;-58